Time;durP1;ratioP1;P1;durP2;ratioP2;P2;SDS_P1;SDS_P2;PMS_P1;PMS_P2;Temp;Humidity;BMP_temperature;BMP_pressure;BME280_temperature;BME280_humidity;BME280_pressure;Samples;Min_cycle;Max_cycle;Signal;HPM_P1;HPM_P2
2023/05/26 00:00:25;;;;;;;;;;;;;;;;;;5055050;28;20377;-58
2023/05/26 00:02:51;;;;;;;;;;;;;;;;;;5056159;28;19920;-58
2023/05/26 00:05:20;;;;;;;;;;;;;;;;;;5055739;28;19921;-58
2023/05/26 00:07:46;;;;;;;;;;;;;;;;;;5056642;28;19924;-58
2023/05/26 00:10:13;;;;;;;;;;;;;;;;;;5053506;28;20297;-59
2023/05/26 00:12:39;;;;;;;;;;;;;;;;;;5061945;28;19921;-58
2023/05/26 00:15:06;;;;;;;;;;;;;;;;;;5059527;28;19921;-58
2023/05/26 00:17:32;;;;;;;;;;;;;;;;;;5055777;28;19979;-58
2023/05/26 00:20:00;;;;;;;;;;;;;;;;;;5074235;28;19935;-58
2023/05/26 00:22:26;;;;;;;;;;;;;;;;;;5074012;28;19920;-58
2023/05/26 00:24:52;;;;;;;;;;;;;;;;;;5056038;28;20254;-58
2023/05/26 00:27:19;;;;;;;;;;;;;;;;;;5054902;28;19928;-58
2023/05/26 00:29:45;;;;;;;;;;;;;;;;;;5055179;28;20404;-58
2023/05/26 00:32:12;;;;;;;;;;;;;;;;;;5055305;28;19928;-58
2023/05/26 00:34:38;;;;;;;;;;;;;;;;;;5070988;28;19927;-58
2023/05/26 00:37:05;;;;;;;;;;;;;;;;;;5075196;28;20378;-58
2023/05/26 00:39:31;;;;;;;;;;;;;;;;;;5070762;28;19920;-58
2023/05/26 00:41:58;;;;;;;;;;;;;;;;;;5053839;28;19921;-58
2023/05/26 00:44:24;;;;;;;;;;;;;;;;;;5055016;28;20370;-58
2023/05/26 00:46:51;;;;;;;;;;;;;;;;;;5069803;28;20003;-58
2023/05/26 00:49:17;;;;;;;;;;;;;;;;;;5073297;28;19931;-58
2023/05/26 00:51:44;;;;;;;;;;;;;;;;;;5072969;28;19920;-58
2023/05/26 00:54:10;;;;;;;;;;;;;;;;;;5066108;28;20297;-58
2023/05/26 00:56:37;;;;;;;;;;;;;;;;;;5054907;28;20531;-58
2023/05/26 00:59:03;;;;;;;;;;;;;;;;;;5054713;28;19927;-58
2023/05/26 01:01:30;;;;;;;;;;;;;;;;;;5054784;28;19920;-58
2023/05/26 01:03:56;;;;;;;;;;;;;;;;;;5059391;28;19928;-58
2023/05/26 01:06:24;;;;;;;;;;;;;;;;;;5074660;28;20349;-58
2023/05/26 01:08:50;;;;;;;;;;;;;;;;;;5072572;28;20361;-58
2023/05/26 01:11:17;;;;;;;;;;;;;;;;;;5072143;28;19927;-58
2023/05/26 01:13:43;;;;;;;;;;;;;;;;;;5053006;28;19928;-58
2023/05/26 01:16:10;;;;;;;;;;;;;;;;;;5074249;28;19995;-58
2023/05/26 01:18:40;;;;;;;;;;;;;;;;;;5074208;28;19920;-58
2023/05/26 01:21:07;;;;;;;;;;;;;;;;;;5073875;28;19920;-58
2023/05/26 01:23:34;;;;;;;;;;;;;;;;;;5074318;28;19920;-58
2023/05/26 01:26:01;;;;;;;;;;;;;;;;;;5055910;28;19920;-57
2023/05/26 01:28:27;;;;;;;;;;;;;;;;;;5053683;28;19921;-58
2023/05/26 01:30:53;;;;;;;;;;;;;;;;;;5069635;28;19920;-58
2023/05/26 01:33:20;;;;;;;;;;;;;;;;;;5071547;28;19947;-58
2023/05/26 01:35:46;;;;;;;;;;;;;;;;;;5059073;28;19928;-58
2023/05/26 01:38:13;;;;;;;;;;;;;;;;;;5064903;28;20403;-58
2023/05/26 01:40:39;;;;;;;;;;;;;;;;;;5054095;28;19920;-58
2023/05/26 01:43:06;;;;;;;;;;;;;;;;;;5054181;28;19920;-58
2023/05/26 01:45:32;;;;;;;;;;;;;;;;;;5063859;28;20309;-58
2023/05/26 01:47:59;;;;;;;;;;;;;;;;;;5072479;28;19924;-58
2023/05/26 01:50:25;;;;;;;;;;;;;;;;;;5052198;28;19921;-58
2023/05/26 01:52:52;;;;;;;;;;;;;;;;;;5053149;28;19920;-58
2023/05/26 01:55:18;;;;;;;;;;;;;;;;;;5051309;28;19932;-58
2023/05/26 01:57:45;;;;;;;;;;;;;;;;;;5052078;28;19928;-58
2023/05/26 02:00:12;;;;;;;;;;;;;;;;;;5064894;28;20364;-58
2023/05/26 02:02:39;;;;;;;;;;;;;;;;;;5073520;28;19931;-58
2023/05/26 02:05:06;;;;;;;;;;;;;;;;;;5064202;28;19924;-58
2023/05/26 02:07:34;;;;;;;;;;;;;;;;;;5053033;28;19920;-58
2023/05/26 02:10:01;;;;;;;;;;;;;;;;;;5063148;28;19927;-58
2023/05/26 02:12:27;;;;;;;;;;;;;;;;;;5070292;28;19925;-58
2023/05/26 02:14:54;;;;;;;;;;;;;;;;;;5052098;28;19921;-58
2023/05/26 02:17:20;;;;;;;;;;;;;;;;;;5053612;28;19931;-58
2023/05/26 02:19:48;;;;;;;;;;;;;;;;;;5054163;28;19937;-58
2023/05/26 02:22:14;;;;;;;;;;;;;;;;;;5054153;28;19928;-59
2023/05/26 02:24:41;;;;;;;;;;;;;;;;;;5053264;28;20293;-59
2023/05/26 02:27:08;;;;;;;;;;;;;;;;;;5061289;28;19920;-59
2023/05/26 02:29:34;;;;;;;;;;;;;;;;;;5073478;28;19920;-59
2023/05/26 02:32:01;;;;;;;;;;;;;;;;;;5072243;28;19934;-59
2023/05/26 02:34:27;;;;;;;;;;;;;;;;;;5071919;28;19920;-59
2023/05/26 02:36:55;;;;;;;;;;;;;;;;;;5069570;28;19920;-59
2023/05/26 02:39:22;;;;;;;;;;;;;;;;;;5073354;28;19920;-59
2023/05/26 02:41:48;;;;;;;;;;;;;;;;;;5070567;28;19925;-59
2023/05/26 02:44:15;;;;;;;;;;;;;;;;;;5073298;28;20369;-59
2023/05/26 02:46:41;;;;;;;;;;;;;;;;;;5071897;28;19920;-59
2023/05/26 02:49:08;;;;;;;;;;;;;;;;;;5073377;28;19935;-59
2023/05/26 02:51:35;;;;;;;;;;;;;;;;;;5061704;28;19920;-59
2023/05/26 02:54:01;;;;;;;;;;;;;;;;;;5073321;28;20305;-60
2023/05/26 02:56:28;;;;;;;;;;;;;;;;;;5066632;28;19994;-59
2023/05/26 02:58:54;;;;;;;;;;;;;;;;;;5070804;28;19929;-59
2023/05/26 03:01:21;;;;;;;;;;;;;;;;;;5073203;28;19935;-59
2023/05/26 03:03:48;;;;;;;;;;;;;;;;;;5071570;28;19920;-59
2023/05/26 03:06:14;;;;;;;;;;;;;;;;;;5058118;28;19920;-59
2023/05/26 03:08:41;;;;;;;;;;;;;;;;;;5056839;28;19921;-59
2023/05/26 03:11:07;;;;;;;;;;;;;;;;;;5074454;28;20381;-59
2023/05/26 03:13:34;;;;;;;;;;;;;;;;;;5055874;28;19920;-59
2023/05/26 03:16:00;;;;;;;;;;;;;;;;;;5073494;28;19943;-60
2023/05/26 03:18:27;;;;;;;;;;;;;;;;;;5074510;28;19928;-59
2023/05/26 03:20:54;;;;;;;;;;;;;;;;;;5056558;28;19921;-59
2023/05/26 03:23:20;;;;;;;;;;;;;;;;;;5056687;28;19925;-59
2023/05/26 03:25:47;;;;;;;;;;;;;;;;;;5062821;28;19920;-58
2023/05/26 03:28:13;;;;;;;;;;;;;;;;;;5061515;28;19920;-59
2023/05/26 03:30:40;;;;;;;;;;;;;;;;;;5056261;28;19924;-59
2023/05/26 03:33:06;;;;;;;;;;;;;;;;;;5056286;28;19921;-59
2023/05/26 03:35:33;;;;;;;;;;;;;;;;;;5055703;28;19921;-58
2023/05/26 03:37:59;;;;;;;;;;;;;;;;;;5070969;28;19924;-59
2023/05/26 03:40:26;;;;;;;;;;;;;;;;;;5074165;28;19943;-58
2023/05/26 03:42:54;;;;;;;;;;;;;;;;;;5073100;28;19920;-58
2023/05/26 03:45:21;;;;;;;;;;;;;;;;;;5056009;28;19924;-59
2023/05/26 03:47:47;;;;;;;;;;;;;;;;;;5056386;28;19921;-58
2023/05/26 03:50:14;;;;;;;;;;;;;;;;;;5056011;28;20280;-58
2023/05/26 03:52:40;;;;;;;;;;;;;;;;;;5075217;28;19920;-58
2023/05/26 03:55:09;;;;;;;;;;;;;;;;;;5074499;28;19920;-59
2023/05/26 03:57:35;;;;;;;;;;;;;;;;;;5062099;28;19921;-59
2023/05/26 04:00:04;;;;;;;;;;;;;;;;;;5060819;28;19998;-59
2023/05/26 04:02:30;;;;;;;;;;;;;;;;;;5068558;28;19924;-59
2023/05/26 04:04:57;;;;;;;;;;;;;;;;;;5074087;28;19928;-57
2023/05/26 04:07:23;;;;;;;;;;;;;;;;;;5075949;28;19924;-58
2023/05/26 04:09:50;;;;;;;;;;;;;;;;;;5068496;28;19932;-58
2023/05/26 04:12:16;;;;;;;;;;;;;;;;;;5054447;28;20370;-58
2023/05/26 04:14:43;;;;;;;;;;;;;;;;;;5055638;28;19920;-58
2023/05/26 04:17:09;;;;;;;;;;;;;;;;;;5054644;28;19940;-58
2023/05/26 04:19:37;;;;;;;;;;;;;;;;;;5057593;28;19974;-58
2023/05/26 04:22:03;;;;;;;;;;;;;;;;;;5073104;28;19921;-58
2023/05/26 04:24:30;;;;;;;;;;;;;;;;;;5075586;28;19943;-58
2023/05/26 04:26:56;;;;;;;;;;;;;;;;;;5068948;28;19927;-58
2023/05/26 04:29:23;;;;;;;;;;;;;;;;;;5056004;28;19928;-58
2023/05/26 04:31:51;;;;;;;;;;;;;;;;;;5058009;28;19924;-58
2023/05/26 04:34:21;;;;;;;;;;;;;;;;;;5052351;28;19920;-58
2023/05/26 04:36:48;;;;;;;;;;;;;;;;;;5055490;28;19921;-58
2023/05/26 04:39:14;;;;;;;;;;;;;;;;;;5056780;28;19921;-58
2023/05/26 04:41:41;;;;;;;;;;;;;;;;;;5054441;28;20288;-58
2023/05/26 04:44:08;;;;;;;;;;;;;;;;;;5062431;28;20321;-58
2023/05/26 04:46:37;;;;;;;;;;;;;;;;;;5065752;28;19924;-58
2023/05/26 04:49:04;;;;;;;;;;;;;;;;;;5055953;28;19928;-58
2023/05/26 04:51:31;;;;;;;;;;;;;;;;;;5053527;28;19920;-58
2023/05/26 04:53:58;;;;;;;;;;;;;;;;;;5074236;28;19920;-59
2023/05/26 04:56:26;;;;;;;;;;;;;;;;;;5065427;28;19927;-58
2023/05/26 04:58:52;;;;;;;;;;;;;;;;;;5067238;28;19920;-58
2023/05/26 05:01:18;;;;;;;;;;;;;;;;;;5071919;28;20289;-58
2023/05/26 05:03:45;;;;;;;;;;;;;;;;;;5068464;28;19928;-58
2023/05/26 05:06:11;;;;;;;;;;;;;;;;;;5070093;28;19928;-58
2023/05/26 05:08:38;;;;;;;;;;;;;;;;;;5058428;28;20440;-58
2023/05/26 05:11:04;;;;;;;;;;;;;;;;;;5067813;28;19921;-58
2023/05/26 05:13:31;;;;;;;;;;;;;;;;;;5064909;28;19928;-58
2023/05/26 05:15:57;;;;;;;;;;;;;;;;;;5074691;28;20369;-58
2023/05/26 05:18:24;;;;;;;;;;;;;;;;;;5063780;28;19924;-58
2023/05/26 05:20:51;;;;;;;;;;;;;;;;;;5073229;28;19928;-58
2023/05/26 05:23:17;;;;;;;;;;;;;;;;;;5063753;28;19921;-58
2023/05/26 05:25:44;;;;;;;;;;;;;;;;;;5067993;28;19920;-58
2023/05/26 05:28:10;;;;;;;;;;;;;;;;;;5069971;28;19936;-58
2023/05/26 05:30:37;;;;;;;;;;;;;;;;;;5067615;28;19921;-58
2023/05/26 05:33:03;;;;;;;;;;;;;;;;;;5064704;28;20122;-58
2023/05/26 05:35:30;;;;;;;;;;;;;;;;;;5056419;28;19936;-58
2023/05/26 05:37:57;;;;;;;;;;;;;;;;;;5067565;28;19920;-58
2023/05/26 05:40:23;;;;;;;;;;;;;;;;;;5062375;28;19932;-58
2023/05/26 05:42:49;;;;;;;;;;;;;;;;;;5058757;28;19924;-58
2023/05/26 05:45:16;;;;;;;;;;;;;;;;;;5070130;28;19983;-58
2023/05/26 05:47:43;;;;;;;;;;;;;;;;;;5053803;28;19928;-58
2023/05/26 05:50:09;;;;;;;;;;;;;;;;;;5071279;28;19927;-58
2023/05/26 05:52:35;;;;;;;;;;;;;;;;;;5068855;28;19920;-59
2023/05/26 05:55:02;;;;;;;;;;;;;;;;;;5053334;28;19928;-59
2023/05/26 05:57:29;;;;;;;;;;;;;;;;;;5061030;28;19927;-58
2023/05/26 05:59:55;;;;;;;;;;;;;;;;;;5051051;28;19921;-58
2023/05/26 06:02:22;;;;;;;;;;;;;;;;;;5071941;28;19930;-58
2023/05/26 06:04:48;;;;;;;;;;;;;;;;;;5073546;28;19927;-58
2023/05/26 06:07:15;;;;;;;;;;;;;;;;;;5050896;28;19928;-58
2023/05/26 06:09:41;;;;;;;;;;;;;;;;;;5053090;28;19921;-58
2023/05/26 06:12:08;;;;;;;;;;;;;;;;;;5060973;28;19921;-58
2023/05/26 06:14:34;;;;;;;;;;;;;;;;;;5071841;28;19928;-58
2023/05/26 06:17:01;;;;;;;;;;;;;;;;;;5067827;28;19924;-58
2023/05/26 06:19:27;;;;;;;;;;;;;;;;;;5065193;28;20261;-58
2023/05/26 06:21:54;;;;;;;;;;;;;;;;;;5062602;28;19921;-58
2023/05/26 06:24:20;;;;;;;;;;;;;;;;;;5067901;28;19924;-58
2023/05/26 06:26:47;;;;;;;;;;;;;;;;;;5059291;28;20292;-59
2023/05/26 06:29:13;;;;;;;;;;;;;;;;;;5056301;28;19929;-59
2023/05/26 06:31:39;;;;;;;;;;;;;;;;;;5059233;28;19920;-58
2023/05/26 06:34:06;;;;;;;;;;;;;;;;;;5063233;28;20385;-59
2023/05/26 06:36:32;;;;;;;;;;;;;;;;;;5062422;28;19928;-58
2023/05/26 06:38:59;;;;;;;;;;;;;;;;;;5056719;28;19921;-58
2023/05/26 06:41:26;;;;;;;;;;;;;;;;;;5056232;28;19925;-59
2023/05/26 06:43:53;;;;;;;;;;;;;;;;;;5058933;28;19944;-58
2023/05/26 06:46:19;;;;;;;;;;;;;;;;;;5058057;28;19928;-59
2023/05/26 06:48:46;;;;;;;;;;;;;;;;;;5050597;28;19920;-58
2023/05/26 06:51:12;;;;;;;;;;;;;;;;;;5057477;28;19940;-58
2023/05/26 06:53:39;;;;;;;;;;;;;;;;;;5059415;28;19921;-58
2023/05/26 06:56:05;;;;;;;;;;;;;;;;;;5065099;28;20293;-58
2023/05/26 06:58:32;;;;;;;;;;;;;;;;;;5049504;28;20381;-59
2023/05/26 07:00:58;;;;;;;;;;;;;;;;;;5057352;28;19924;-59
2023/05/26 07:03:25;;;;;;;;;;;;;;;;;;5064585;28;19929;-59
2023/05/26 07:05:51;;;;;;;;;;;;;;;;;;5051185;28;19953;-59
2023/05/26 07:08:18;;;;;;;;;;;;;;;;;;5051103;28;19947;-59
2023/05/26 07:10:44;;;;;;;;;;;;;;;;;;5065209;28;19959;-59
2023/05/26 07:13:11;;;;;;;;;;;;;;;;;;5053196;28;20304;-59
2023/05/26 07:15:37;;;;;;;;;;;;;;;;;;5052079;28;19928;-59
2023/05/26 07:18:04;;;;;;;;;;;;;;;;;;5055899;28;19920;-59
2023/05/26 07:20:30;;;;;;;;;;;;;;;;;;5059932;28;19920;-59
2023/05/26 07:22:57;;;;;;;;;;;;;;;;;;5053038;28;19920;-59
2023/05/26 07:25:23;;;;;;;;;;;;;;;;;;5053093;28;19928;-59
2023/05/26 07:27:50;;;;;;;;;;;;;;;;;;5053041;28;19928;-59
2023/05/26 07:30:16;;;;;;;;;;;;;;;;;;5070116;28;19920;-59
2023/05/26 07:32:42;;;;;;;;;;;;;;;;;;5073134;28;19943;-59
2023/05/26 07:35:09;;;;;;;;;;;;;;;;;;5071970;28;19920;-59
2023/05/26 07:37:36;;;;;;;;;;;;;;;;;;5072861;28;20379;-58
2023/05/26 07:40:02;;;;;;;;;;;;;;;;;;5069212;28;19927;-59
2023/05/26 07:42:29;;;;;;;;;;;;;;;;;;5064553;28;19928;-59
2023/05/26 07:44:56;;;;;;;;;;;;;;;;;;5052503;28;19920;-59
2023/05/26 07:47:22;;;;;;;;;;;;;;;;;;5052541;28;19920;-59
2023/05/26 07:49:49;;;;;;;;;;;;;;;;;;5052613;28;20381;-59
2023/05/26 07:52:15;;;;;;;;;;;;;;;;;;5053115;28;19921;-59
2023/05/26 07:54:42;;;;;;;;;;;;;;;;;;5057685;28;19931;-59
2023/05/26 07:57:08;;;;;;;;;;;;;;;;;;5074122;28;19921;-59
2023/05/26 07:59:35;;;;;;;;;;;;;;;;;;5076134;28;20285;-59
2023/05/26 08:02:01;;;;;;;;;;;;;;;;;;5076110;28;19925;-59
2023/05/26 08:04:28;;;;;;;;;;;;;;;;;;5075606;28;19927;-59
2023/05/26 08:06:54;;;;;;;;;;;;;;;;;;5075780;28;19928;-59
2023/05/26 08:09:21;;;;;;;;;;;;;;;;;;5073674;28;19924;-59
2023/05/26 08:11:47;;;;;;;;;;;;;;;;;;5056505;28;20294;-59
2023/05/26 08:14:14;;;;;;;;;;;;;;;;;;5066865;28;19920;-59
2023/05/26 08:16:40;;;;;;;;;;;;;;;;;;5064588;28;19932;-59
2023/05/26 08:19:07;;;;;;;;;;;;;;;;;;5055437;28;19921;-59
2023/05/26 08:21:33;;;;;;;;;;;;;;;;;;5071161;28;20285;-59
2023/05/26 08:24:00;;;;;;;;;;;;;;;;;;5075502;28;19927;-60
2023/05/26 08:26:26;;;;;;;;;;;;;;;;;;5069177;28;19920;-59
2023/05/26 08:28:53;;;;;;;;;;;;;;;;;;5061934;28;20301;-59
2023/05/26 08:31:20;;;;;;;;;;;;;;;;;;5063951;28;19927;-59
2023/05/26 08:33:46;;;;;;;;;;;;;;;;;;5061172;28;19936;-59
2023/05/26 08:36:13;;;;;;;;;;;;;;;;;;5074367;28;19924;-58
2023/05/26 08:38:39;;;;;;;;;;;;;;;;;;5075088;28;19928;-60
2023/05/26 08:41:06;;;;;;;;;;;;;;;;;;5071505;28;19920;-60
2023/05/26 08:43:32;;;;;;;;;;;;;;;;;;5075089;28;19932;-60
2023/05/26 08:45:59;;;;;;;;;;;;;;;;;;5074999;28;19921;-59
2023/05/26 08:48:25;;;;;;;;;;;;;;;;;;5075136;28;19920;-60
2023/05/26 08:50:52;;;;;;;;;;;;;;;;;;5074819;28;19928;-59
2023/05/26 08:53:20;;;;;;;;;;;;;;;;;;5075100;28;19920;-60
2023/05/26 08:55:46;;;;;;;;;;;;;;;;;;5071741;28;20305;-58
2023/05/26 08:58:13;;;;;;;;;;;;;;;;;;5075308;28;19920;-58
2023/05/26 09:00:40;;;;;;;;;;;;;;;;;;5075230;28;19920;-59
2023/05/26 09:03:06;;;;;;;;;;;;;;;;;;5074347;28;19920;-59
2023/05/26 09:05:33;;;;;;;;;;;;;;;;;;5074450;28;19928;-56
2023/05/26 09:08:00;;;;;;;;;;;;;;;;;;5074859;28;20007;-57
2023/05/26 09:10:26;;;;;;;;;;;;;;;;;;5069204;28;19920;-59
2023/05/26 09:12:53;;;;;;;;;;;;;;;;;;5071602;28;20387;-58
2023/05/26 09:15:21;;;;;;;;;;;;;;;;;;5054372;28;19927;-57
2023/05/26 09:17:48;;;;;;;;;;;;;;;;;;5054955;28;19921;-57
2023/05/26 09:20:14;;;;;;;;;;;;;;;;;;5054468;28;19927;-57
2023/05/26 09:22:41;;;;;;;;;;;;;;;;;;5054679;28;20281;-57
2023/05/26 09:25:07;;;;;;;;;;;;;;;;;;5056394;28;19921;-58
2023/05/26 09:27:34;;;;;;;;;;;;;;;;;;5074469;28;20284;-57
2023/05/26 09:30:01;;;;;;;;;;;;;;;;;;5074048;28;19921;-57
2023/05/26 09:32:27;;;;;;;;;;;;;;;;;;5074348;28;20282;-57
2023/05/26 09:34:54;;;;;;;;;;;;;;;;;;5074197;28;19921;-58
2023/05/26 09:37:20;;;;;;;;;;;;;;;;;;5074318;28;20308;-58
2023/05/26 09:39:47;;;;;;;;;;;;;;;;;;5070442;28;19927;-57
2023/05/26 09:42:13;;;;;;;;;;;;;;;;;;5073041;28;19921;-57
2023/05/26 09:44:40;;;;;;;;;;;;;;;;;;5074026;28;20297;-58
2023/05/26 09:47:07;;;;;;;;;;;;;;;;;;5073901;28;19920;-58
2023/05/26 09:49:33;;;;;;;;;;;;;;;;;;5071109;28;20576;-58
2023/05/26 09:52:00;;;;;;;;;;;;;;;;;;5073836;28;19920;-59
2023/05/26 09:54:26;;;;;;;;;;;;;;;;;;5072425;28;19927;-59
2023/05/26 09:56:53;;;;;;;;;;;;;;;;;;5055024;28;19925;-58
2023/05/26 09:59:20;;;;;;;;;;;;;;;;;;5054062;28;19928;-58
2023/05/26 10:01:46;;;;;;;;;;;;;;;;;;5053688;28;19920;-58
2023/05/26 10:04:13;;;;;;;;;;;;;;;;;;5053313;28;20408;-58
2023/05/26 10:06:39;;;;;;;;;;;;;;;;;;5053759;28;19927;-59
2023/05/26 10:09:06;;;;;;;;;;;;;;;;;;5063992;28;19920;-58
2023/05/26 10:11:32;;;;;;;;;;;;;;;;;;5057679;28;19920;-59
2023/05/26 10:13:59;;;;;;;;;;;;;;;;;;5053090;28;19921;-59
2023/05/26 10:16:25;;;;;;;;;;;;;;;;;;5052572;28;19928;-59
2023/05/26 10:18:52;;;;;;;;;;;;;;;;;;5053529;28;19921;-59
2023/05/26 10:21:18;;;;;;;;;;;;;;;;;;5053335;28;19921;-59
2023/05/26 10:23:45;;;;;;;;;;;;;;;;;;5053370;28;19921;-59
2023/05/26 10:26:11;;;;;;;;;;;;;;;;;;5053029;28;19927;-58
2023/05/26 10:28:38;;;;;;;;;;;;;;;;;;5053434;28;19921;-59
2023/05/26 10:31:04;;;;;;;;;;;;;;;;;;5053084;28;19920;-59
2023/05/26 10:33:31;;;;;;;;;;;;;;;;;;5053415;28;20370;-59
2023/05/26 10:35:57;;;;;;;;;;;;;;;;;;5053279;28;19927;-58
2023/05/26 10:38:24;;;;;;;;;;;;;;;;;;5053840;28;20273;-58
2023/05/26 10:40:50;;;;;;;;;;;;;;;;;;5064372;28;19921;-59
2023/05/26 10:43:17;;;;;;;;;;;;;;;;;;5073588;28;20293;-59
2023/05/26 10:45:43;;;;;;;;;;;;;;;;;;5073306;28;19924;-59
2023/05/26 10:48:10;;;;;;;;;;;;;;;;;;5073533;28;19921;-59
2023/05/26 10:50:36;;;;;;;;;;;;;;;;;;5072996;28;20373;-59
2023/05/26 10:53:03;;;;;;;;;;;;;;;;;;5073596;28;19939;-58
2023/05/26 10:55:30;;;;;;;;;;;;;;;;;;5069748;28;19928;-58
2023/05/26 10:57:57;;;;;;;;;;;;;;;;;;5073325;28;19920;-58
2023/05/26 11:00:23;;;;;;;;;;;;;;;;;;5071319;28;20400;-60
2023/05/26 11:02:50;;;;;;;;;;;;;;;;;;5073257;28;19921;-57
2023/05/26 11:05:16;;;;;;;;;;;;;;;;;;5072161;28;20297;-57
2023/05/26 11:07:43;;;;;;;;;;;;;;;;;;5073319;28;19929;-57
2023/05/26 11:10:09;;;;;;;;;;;;;;;;;;5068729;28;19974;-57
2023/05/26 11:12:36;;;;;;;;;;;;;;;;;;5073004;28;19921;-59
2023/05/26 11:15:02;;;;;;;;;;;;;;;;;;5072569;28;20262;-58
2023/05/26 11:17:29;;;;;;;;;;;;;;;;;;5073324;28;19920;-58
2023/05/26 11:19:55;;;;;;;;;;;;;;;;;;5069708;28;20300;-59
2023/05/26 11:22:22;;;;;;;;;;;;;;;;;;5072871;28;19927;-58
2023/05/26 11:24:49;;;;;;;;;;;;;;;;;;5069844;28;19983;-58
2023/05/26 11:27:15;;;;;;;;;;;;;;;;;;5074325;28;19920;-58
2023/05/26 11:29:42;;;;;;;;;;;;;;;;;;5076587;28;19920;-57
2023/05/26 11:32:08;;;;;;;;;;;;;;;;;;5076558;28;19927;-58
2023/05/26 11:34:35;;;;;;;;;;;;;;;;;;5076617;28;19920;-58
2023/05/26 11:37:01;;;;;;;;;;;;;;;;;;5076315;28;19921;-58
2023/05/26 11:39:28;;;;;;;;;;;;;;;;;;5072929;28;19920;-58
2023/05/26 11:41:54;;;;;;;;;;;;;;;;;;5076694;28;19928;-58
2023/05/26 11:44:21;;;;;;;;;;;;;;;;;;5076309;28;19931;-57
2023/05/26 11:46:47;;;;;;;;;;;;;;;;;;5072921;28;19921;-58
2023/05/26 11:49:14;;;;;;;;;;;;;;;;;;5069183;28;19925;-58
2023/05/26 11:51:40;;;;;;;;;;;;;;;;;;5056059;28;19921;-58
2023/05/26 11:54:08;;;;;;;;;;;;;;;;;;5055756;28;19921;-58
2023/05/26 11:56:35;;;;;;;;;;;;;;;;;;5056527;28;19927;-58
2023/05/26 11:59:01;;;;;;;;;;;;;;;;;;5056200;28;19921;-58
2023/05/26 12:01:28;;;;;;;;;;;;;;;;;;5055825;28;19921;-59
2023/05/26 12:03:55;;;;;;;;;;;;;;;;;;5056120;28;19921;-58
2023/05/26 12:06:22;;;;;;;;;;;;;;;;;;5055143;28;20350;-58
2023/05/26 12:08:48;;;;;;;;;;;;;;;;;;5055998;28;19928;-58
2023/05/26 12:11:15;;;;;;;;;;;;;;;;;;5068017;28;19921;-59
2023/05/26 12:13:41;;;;;;;;;;;;;;;;;;5075373;28;20285;-59
2023/05/26 12:16:08;;;;;;;;;;;;;;;;;;5075780;28;19920;-59
2023/05/26 12:18:34;;;;;;;;;;;;;;;;;;5076097;28;19920;-59
2023/05/26 12:21:01;;;;;;;;;;;;;;;;;;5071899;28;19920;-57
2023/05/26 12:23:28;;;;;;;;;;;;;;;;;;5075690;28;19920;-59
2023/05/26 12:25:55;;;;;;;;;;;;;;;;;;5073494;28;19983;-58
2023/05/26 12:28:21;;;;;;;;;;;;;;;;;;5075246;28;19928;-58
2023/05/26 12:30:47;;;;;;;;;;;;;;;;;;5075592;28;20297;-58
2023/05/26 12:33:14;;;;;;;;;;;;;;;;;;5074125;28;19920;-59
2023/05/26 12:35:40;;;;;;;;;;;;;;;;;;5075139;28;19920;-58
2023/05/26 12:38:07;;;;;;;;;;;;;;;;;;5074288;28;19927;-57
2023/05/26 12:40:33;;;;;;;;;;;;;;;;;;5071716;28;19939;-59
2023/05/26 12:43:00;;;;;;;;;;;;;;;;;;5075332;28;19921;-58
2023/05/26 12:45:27;;;;;;;;;;;;;;;;;;5074802;28;19921;-58
2023/05/26 12:47:53;;;;;;;;;;;;;;;;;;5074865;28;19931;-59
2023/05/26 12:50:20;;;;;;;;;;;;;;;;;;5075304;28;19920;-59
2023/05/26 12:52:48;;;;;;;;;;;;;;;;;;5073849;28;19920;-59
2023/05/26 12:55:15;;;;;;;;;;;;;;;;;;5073301;28;19920;-58
2023/05/26 12:57:41;;;;;;;;;;;;;;;;;;5073635;28;19920;-59
2023/05/26 13:00:08;;;;;;;;;;;;;;;;;;5074614;28;19921;-59
2023/05/26 13:02:36;;;;;;;;;;;;;;;;;;5074658;28;19921;-58
2023/05/26 13:05:03;;;;;;;;;;;;;;;;;;5075027;28;19920;-59
2023/05/26 13:07:29;;;;;;;;;;;;;;;;;;5075038;28;19995;-59
2023/05/26 13:09:56;;;;;;;;;;;;;;;;;;5073189;28;19920;-58
2023/05/26 13:12:23;;;;;;;;;;;;;;;;;;5072661;28;19927;-59
2023/05/26 13:14:50;;;;;;;;;;;;;;;;;;5074356;28;19928;-59
2023/05/26 13:17:17;;;;;;;;;;;;;;;;;;5074560;28;19927;-58
2023/05/26 13:19:43;;;;;;;;;;;;;;;;;;5066162;28;19928;-59
2023/05/26 13:22:10;;;;;;;;;;;;;;;;;;5069072;28;20293;-59
2023/05/26 13:24:36;;;;;;;;;;;;;;;;;;5061470;28;19920;-58
2023/05/26 13:27:03;;;;;;;;;;;;;;;;;;5054447;28;20312;-57
2023/05/26 13:29:29;;;;;;;;;;;;;;;;;;5054219;28;19929;-59
2023/05/26 13:31:58;;;;;;;;;;;;;;;;;;5054534;28;19920;-58
2023/05/26 13:34:24;;;;;;;;;;;;;;;;;;5054446;28;19931;-59
2023/05/26 13:36:51;;;;;;;;;;;;;;;;;;5065075;28;19927;-59
2023/05/26 13:39:17;;;;;;;;;;;;;;;;;;5074389;28;19920;-59
2023/05/26 13:41:44;;;;;;;;;;;;;;;;;;5070646;28;19927;-58
2023/05/26 13:44:10;;;;;;;;;;;;;;;;;;5074162;28;20289;-59
2023/05/26 13:46:38;;;;;;;;;;;;;;;;;;5074299;28;19920;-58
2023/05/26 13:49:05;;;;;;;;;;;;;;;;;;5072939;28;19924;-58
2023/05/26 13:51:31;;;;;;;;;;;;;;;;;;5074155;28;19921;-58
2023/05/26 13:53:58;;;;;;;;;;;;;;;;;;5071073;28;19927;-58
2023/05/26 13:56:24;;;;;;;;;;;;;;;;;;5063419;28;19924;-59
2023/05/26 13:58:51;;;;;;;;;;;;;;;;;;5073763;28;19927;-59
2023/05/26 14:01:18;;;;;;;;;;;;;;;;;;5073247;28;19927;-59
2023/05/26 14:03:46;;;;;;;;;;;;;;;;;;5073541;28;19935;-59
2023/05/26 14:06:13;;;;;;;;;;;;;;;;;;5073394;28;20311;-59
2023/05/26 14:08:39;;;;;;;;;;;;;;;;;;5073826;28;20309;-59
2023/05/26 14:11:06;;;;;;;;;;;;;;;;;;5069780;28;19921;-59
2023/05/26 14:13:32;;;;;;;;;;;;;;;;;;5073195;28;19927;-59
2023/05/26 14:15:59;;;;;;;;;;;;;;;;;;5073658;28;19921;-59
2023/05/26 14:18:26;;;;;;;;;;;;;;;;;;5073249;28;19920;-59
2023/05/26 14:20:52;;;;;;;;;;;;;;;;;;5073090;28;19944;-58
2023/05/26 14:23:20;;;;;;;;;;;;;;;;;;5073201;28;20408;-59
2023/05/26 14:25:46;;;;;;;;;;;;;;;;;;5070147;28;19925;-60
2023/05/26 14:28:13;;;;;;;;;;;;;;;;;;5072964;28;19928;-60
2023/05/26 14:30:39;;;;;;;;;;;;;;;;;;5072928;28;19928;-58
2023/05/26 14:33:06;;;;;;;;;;;;;;;;;;5072905;28;19920;-59
2023/05/26 14:35:32;;;;;;;;;;;;;;;;;;5072869;28;19921;-59
2023/05/26 14:37:59;;;;;;;;;;;;;;;;;;5073134;28;20380;-59
2023/05/26 14:40:25;;;;;;;;;;;;;;;;;;5069622;28;19932;-58
2023/05/26 14:42:52;;;;;;;;;;;;;;;;;;5073062;28;19921;-60
2023/05/26 14:45:18;;;;;;;;;;;;;;;;;;5073314;28;19998;-58
2023/05/26 14:47:45;;;;;;;;;;;;;;;;;;5073097;28;19924;-58
2023/05/26 14:50:11;;;;;;;;;;;;;;;;;;5073164;28;19920;-58
2023/05/26 14:52:38;;;;;;;;;;;;;;;;;;5072973;28;19921;-59
2023/05/26 14:55:06;;;;;;;;;;;;;;;;;;5069310;28;19921;-58
2023/05/26 14:57:33;;;;;;;;;;;;;;;;;;5069123;28;19920;-58
2023/05/26 14:59:59;;;;;;;;;;;;;;;;;;5073232;28;20293;-58
2023/05/26 15:02:25;;;;;;;;;;;;;;;;;;5070030;28;19924;-58
2023/05/26 15:04:52;;;;;;;;;;;;;;;;;;5077316;28;19927;-58
2023/05/26 15:07:19;;;;;;;;;;;;;;;;;;5076694;28;19920;-58
2023/05/26 15:09:46;;;;;;;;;;;;;;;;;;5076934;28;19924;-58
2023/05/26 15:12:12;;;;;;;;;;;;;;;;;;5068061;28;19931;-58
2023/05/26 15:14:40;;;;;;;;;;;;;;;;;;5056269;28;19920;-58
2023/05/26 15:17:07;;;;;;;;;;;;;;;;;;5056806;28;19921;-58
2023/05/26 15:19:33;;;;;;;;;;;;;;;;;;5056695;28;20380;-58
2023/05/26 15:22:00;;;;;;;;;;;;;;;;;;5075629;28;19920;-58
2023/05/26 15:24:26;;;;;;;;;;;;;;;;;;5076837;28;20289;-58
2023/05/26 15:26:53;;;;;;;;;;;;;;;;;;5073286;28;19927;-58
2023/05/26 15:29:19;;;;;;;;;;;;;;;;;;5076545;28;19971;-58
2023/05/26 15:31:46;;;;;;;;;;;;;;;;;;5076476;28;19924;-58
2023/05/26 15:34:12;;;;;;;;;;;;;;;;;;5074652;28;20292;-58
2023/05/26 15:36:39;;;;;;;;;;;;;;;;;;5075970;28;19928;-58
2023/05/26 15:39:05;;;;;;;;;;;;;;;;;;5076122;28;19931;-58
2023/05/26 15:41:32;;;;;;;;;;;;;;;;;;5073124;28;19921;-58
2023/05/26 15:43:59;;;;;;;;;;;;;;;;;;5076203;28;19927;-58
2023/05/26 15:46:26;;;;;;;;;;;;;;;;;;5076100;28;20381;-58
2023/05/26 15:48:52;;;;;;;;;;;;;;;;;;5076202;28;19920;-58
2023/05/26 15:51:19;;;;;;;;;;;;;;;;;;5067807;28;19932;-59
2023/05/26 15:53:46;;;;;;;;;;;;;;;;;;5055948;28;19924;-60
2023/05/26 15:56:12;;;;;;;;;;;;;;;;;;5057789;28;19927;-58
2023/05/26 15:58:39;;;;;;;;;;;;;;;;;;5075703;28;19920;-58
2023/05/26 16:01:05;;;;;;;;;;;;;;;;;;5075740;28;19924;-58
2023/05/26 16:03:31;;;;;;;;;;;;;;;;;;5075664;28;19920;-58
2023/05/26 16:05:58;;;;;;;;;;;;;;;;;;5075611;28;19925;-58
2023/05/26 16:08:24;;;;;;;;;;;;;;;;;;5075770;28;19944;-59
2023/05/26 16:10:51;;;;;;;;;;;;;;;;;;5073388;28;19928;-58
2023/05/26 16:13:17;;;;;;;;;;;;;;;;;;5074330;28;19943;-57
2023/05/26 16:15:44;;;;;;;;;;;;;;;;;;5064648;28;20400;-58
2023/05/26 16:18:10;;;;;;;;;;;;;;;;;;5057042;28;19927;-58
2023/05/26 16:20:37;;;;;;;;;;;;;;;;;;5063176;28;19927;-59
2023/05/26 16:23:03;;;;;;;;;;;;;;;;;;5075471;28;20304;-58
2023/05/26 16:25:30;;;;;;;;;;;;;;;;;;5075472;28;19927;-58
2023/05/26 16:27:56;;;;;;;;;;;;;;;;;;5072108;28;19921;-59
2023/05/26 16:30:23;;;;;;;;;;;;;;;;;;5075675;28;19920;-59
2023/05/26 16:32:49;;;;;;;;;;;;;;;;;;5075378;28;19928;-59
2023/05/26 16:35:16;;;;;;;;;;;;;;;;;;5056466;28;19924;-59
2023/05/26 16:37:43;;;;;;;;;;;;;;;;;;5054608;28;20404;-58
2023/05/26 16:40:10;;;;;;;;;;;;;;;;;;5055461;28;20361;-59